Time;durP1;ratioP1;P1;durP2;ratioP2;P2;SDS_P1;SDS_P2;PMS_P1;PMS_P2;Temp;Humidity;BMP_temperature;BMP_pressure;BME280_temperature;BME280_humidity;BME280_pressure;Samples;Min_cycle;Max_cycle;Signal;HPM_P1;HPM_P2
2023/05/10 00:01:14;;;;;;;18.65;9.73;;;;;;;;;;4970950;28;20054;-78
2023/05/10 00:03:40;;;;;;;24.35;10.40;;;;;;;;;;4976615;28;20046;-79
2023/05/10 00:06:06;;;;;;;19.33;10.52;;;;;;;;;;4974610;28;20136;-79
2023/05/10 00:08:32;;;;;;;26.50;12.23;;;;;;;;;;4978899;28;20086;-79
2023/05/10 00:10:58;;;;;;;22.85;11.63;;;;;;;;;;4988466;28;20053;-80
2023/05/10 00:13:24;;;;;;;28.73;12.00;;;;;;;;;;4990602;28;20121;-80
2023/05/10 00:15:51;;;;;;;22.13;11.90;;;;;;;;;;4990819;28;20046;-78
2023/05/10 00:18:17;;;;;;;17.17;12.32;;;;;;;;;;4961721;28;20027;-80
2023/05/10 00:20:43;;;;;;;21.42;11.90;;;;;;;;;;4980557;28;20038;-80
2023/05/10 00:23:09;;;;;;;21.20;12.07;;;;;;;;;;4986141;28;20129;-80
2023/05/10 00:25:35;;;;;;;21.13;11.70;;;;;;;;;;4987791;28;20046;-79
2023/05/10 00:28:01;;;;;;;25.33;11.55;;;;;;;;;;4980261;28;20035;-79
2023/05/10 00:30:27;;;;;;;22.83;11.13;;;;;;;;;;4977507;28;20533;-79
2023/05/10 00:32:56;;;;;;;20.15;11.27;;;;;;;;;;4978137;28;20026;-78
2023/05/10 00:35:22;;;;;;;27.30;10.45;;;;;;;;;;4992808;28;20043;-78
2023/05/10 00:37:48;;;;;;;24.05;11.52;;;;;;;;;;4974907;28;20409;-79
2023/05/10 00:40:14;;;;;;;19.08;9.73;;;;;;;;;;4974538;28;20046;-79
2023/05/10 00:42:44;;;;;;;24.05;10.82;;;;;;;;;;4956051;28;20714;-79
2023/05/10 00:45:11;;;;;;;23.33;11.63;;;;;;;;;;4972645;28;20047;-76
2023/05/10 00:47:37;;;;;;;16.52;9.80;;;;;;;;;;4974121;28;20030;-79
2023/05/10 00:50:05;;;;;;;18.05;9.73;;;;;;;;;;4974527;28;20039;-80
2023/05/10 00:52:31;;;;;;;16.95;9.80;;;;;;;;;;4974707;28;20045;-79
2023/05/10 00:54:58;;;;;;;23.30;9.48;;;;;;;;;;4976758;28;20042;-79
2023/05/10 00:57:24;;;;;;;20.45;10.25;;;;;;;;;;4976532;28;20035;-80
2023/05/10 00:59:51;;;;;;;17.45;10.05;;;;;;;;;;4976235;28;20503;-80
2023/05/10 01:02:17;;;;;;;15.85;10.60;;;;;;;;;;4989368;28;20126;-79
2023/05/10 01:04:43;;;;;;;24.73;10.80;;;;;;;;;;4959149;28;20085;-80
2023/05/10 01:07:09;;;;;;;26.13;12.05;;;;;;;;;;4979135;28;20039;-78
2023/05/10 01:09:35;;;;;;;29.23;12.15;;;;;;;;;;4986661;28;20039;-79
2023/05/10 01:12:02;;;;;;;24.50;10.52;;;;;;;;;;4990238;28;20042;-80
2023/05/10 01:14:29;;;;;;;19.88;10.70;;;;;;;;;;4990253;28;20043;-80
2023/05/10 01:16:55;;;;;;;22.85;10.70;;;;;;;;;;4983356;28;20622;-79
2023/05/10 01:19:28;;;;;;;27.85;9.88;;;;;;;;;;4997346;28;20043;-79
2023/05/10 01:22:01;;;;;;;19.75;10.50;;;;;;;;;;4960727;28;20046;-78
2023/05/10 01:24:30;;;;;;;18.45;10.23;;;;;;;;;;4980623;28;20054;-80
2023/05/10 01:27:15;;;;;;;25.55;10.18;;;;;;;;;;4995670;28;20419;-79
2023/05/10 01:29:47;;;;;;;21.40;9.55;;;;;;;;;;4982336;28;20085;-79
2023/05/10 01:32:16;;;;;;;12.55;8.75;;;;;;;;;;4995403;28;20382;-78
2023/05/10 01:35:03;;;;;;;17.60;10.02;;;;;;;;;;4979150;28;20027;-79
2023/05/10 01:37:33;;;;;;;16.85;8.70;;;;;;;;;;4979187;28;20034;-79
2023/05/10 01:40:05;;;;;;;22.75;9.23;;;;;;;;;;4978030;28;20043;-79
2023/05/10 01:42:35;;;;;;;18.65;10.57;;;;;;;;;;4964887;28;20034;-80
2023/05/10 01:45:04;;;;;;;14.52;8.82;;;;;;;;;;4983767;28;20047;-78
2023/05/10 01:47:49;;;;;;;11.65;9.00;;;;;;;;;;4982681;28;20099;-80
2023/05/10 01:50:15;;;;;;;23.02;11.00;;;;;;;;;;4998276;28;20039;-79
2023/05/10 01:52:42;;;;;;;12.38;9.27;;;;;;;;;;4965484;28;20037;-79
2023/05/10 01:55:09;;;;;;;14.30;9.40;;;;;;;;;;4980211;28;20046;-80
2023/05/10 01:57:35;;;;;;;15.93;8.50;;;;;;;;;;4984914;28;20027;-79
2023/05/10 02:00:04;;;;;;;10.52;8.35;;;;;;;;;;4996184;28;20058;-80
2023/05/10 02:02:42;;;;;;;17.48;9.20;;;;;;;;;;4998596;28;20035;-78
2023/05/10 02:05:08;;;;;;;20.92;9.35;;;;;;;;;;4979868;28;20049;-79
2023/05/10 02:07:35;;;;;;;17.45;9.52;;;;;;;;;;4993037;28;20069;-77
2023/05/10 02:10:04;;;;;;;23.30;9.77;;;;;;;;;;4978546;28;20069;-79
2023/05/10 02:12:31;;;;;;;11.95;9.30;;;;;;;;;;4983477;28;20058;-78
2023/05/10 02:14:57;;;;;;;12.32;8.85;;;;;;;;;;4982177;28;20101;-78
2023/05/10 02:17:23;;;;;;;16.23;9.63;;;;;;;;;;4997499;28;20034;-78
2023/05/10 02:19:49;;;;;;;15.65;9.25;;;;;;;;;;4962727;28;20069;-79
2023/05/10 02:22:15;;;;;;;20.95;8.90;;;;;;;;;;4977486;28;20082;-78
2023/05/10 02:24:41;;;;;;;14.93;8.52;;;;;;;;;;4973093;28;20060;-78
2023/05/10 02:27:07;;;;;;;9.80;8.43;;;;;;;;;;4957645;28;20034;-79
2023/05/10 02:29:34;;;;;;;19.40;8.65;;;;;;;;;;4975468;28;20042;-78
2023/05/10 02:32:00;;;;;;;15.80;8.70;;;;;;;;;;4974268;28;20493;-79
2023/05/10 02:34:27;;;;;;;16.98;8.65;;;;;;;;;;4974709;28;20050;-79
2023/05/10 02:36:55;;;;;;;15.32;9.48;;;;;;;;;;4974528;28;20584;-78
2023/05/10 02:39:21;;;;;;;17.30;9.60;;;;;;;;;;4976267;28;20599;-78
2023/05/10 02:41:51;;;;;;;21.23;8.60;;;;;;;;;;4972983;28;20042;-77
2023/05/10 02:44:20;;;;;;;9.55;8.07;;;;;;;;;;4972366;28;20042;-77
2023/05/10 02:46:46;;;;;;;13.27;7.93;;;;;;;;;;4988695;28;20117;-78
2023/05/10 02:49:13;;;;;;;15.73;9.32;;;;;;;;;;4956305;28;20509;-78
2023/05/10 02:51:41;;;;;;;14.05;8.27;;;;;;;;;;4974381;28;20050;-74
2023/05/10 02:54:08;;;;;;;17.42;8.68;;;;;;;;;;4956083;28;20401;-75
2023/05/10 02:56:35;;;;;;;19.25;8.80;;;;;;;;;;4972262;28;20049;-76
2023/05/10 02:59:02;;;;;;;16.02;8.98;;;;;;;;;;4973020;28;20066;-76
2023/05/10 03:01:29;;;;;;;21.98;8.85;;;;;;;;;;4987514;28;20049;-78
2023/05/10 03:03:54;;;;;;;19.13;9.65;;;;;;;;;;4976866;28;20109;-76
2023/05/10 03:06:21;;;;;;;22.45;9.77;;;;;;;;;;4994013;28;20043;-78
2023/05/10 03:08:47;;;;;;;15.05;9.60;;;;;;;;;;4995644;28;20038;-79
2023/05/10 03:11:16;;;;;;;11.75;9.07;;;;;;;;;;5011447;28;20050;-78
2023/05/10 03:13:57;;;;;;;14.88;8.25;;;;;;;;;;5013029;28;20023;-78
2023/05/10 03:16:27;;;;;;;14.75;8.45;;;;;;;;;;4981754;28;20337;-79
2023/05/10 03:19:01;;;;;;;20.73;9.00;;;;;;;;;;4997866;28;20050;-78
2023/05/10 03:21:28;;;;;;;23.20;10.52;;;;;;;;;;4986047;28;20085;-78
2023/05/10 03:23:58;;;;;;;17.77;10.77;;;;;;;;;;4988554;28;20038;-77
2023/05/10 03:26:28;;;;;;;18.27;9.70;;;;;;;;;;5003080;28;20038;-78
2023/05/10 03:29:02;;;;;;;19.17;9.90;;;;;;;;;;4998664;28;20106;-78
2023/05/10 03:31:28;;;;;;;19.27;9.27;;;;;;;;;;4996398;28;20031;-76
2023/05/10 03:33:54;;;;;;;25.98;10.07;;;;;;;;;;4975734;28;20042;-77
2023/05/10 03:36:24;;;;;;;19.08;9.93;;;;;;;;;;4972435;28;20034;-76
2023/05/10 03:38:51;;;;;;;17.45;9.73;;;;;;;;;;4972072;28;20031;-76
2023/05/10 03:41:17;;;;;;;21.85;9.93;;;;;;;;;;4988425;28;20041;-75
2023/05/10 03:43:43;;;;;;;19.38;9.75;;;;;;;;;;4990051;28;20054;-76
2023/05/10 03:46:10;;;;;;;16.67;9.63;;;;;;;;;;4996120;28;20424;-76
2023/05/10 03:48:36;;;;;;;16.40;9.38;;;;;;;;;;4985846;28;20054;-75
2023/05/10 03:51:02;;;;;;;22.17;10.57;;;;;;;;;;4980227;28;20043;-76
2023/05/10 03:53:28;;;;;;;13.82;9.82;;;;;;;;;;4972322;28;20519;-77
2023/05/10 03:55:54;;;;;;;22.67;9.60;;;;;;;;;;4971775;28;20039;-76
2023/05/10 03:58:20;;;;;;;15.07;9.95;;;;;;;;;;4978578;28;20058;-76
2023/05/10 04:00:46;;;;;;;15.73;9.90;;;;;;;;;;4972035;28;20121;-75
2023/05/10 04:03:13;;;;;;;15.63;9.13;;;;;;;;;;4987002;28;20489;-75
2023/05/10 04:05:39;;;;;;;21.50;9.82;;;;;;;;;;4971120;28;20047;-77
2023/05/10 04:08:05;;;;;;;28.55;9.50;;;;;;;;;;4986862;28;20034;-76
2023/05/10 04:10:31;;;;;;;17.23;9.18;;;;;;;;;;4954845;28;20039;-75
2023/05/10 04:12:58;;;;;;;15.55;9.13;;;;;;;;;;4972105;28;20266;-76
2023/05/10 04:15:24;;;;;;;19.48;9.63;;;;;;;;;;4970765;28;20078;-76
2023/05/10 04:17:50;;;;;;;15.63;9.00;;;;;;;;;;4987075;28;20038;-76
2023/05/10 04:20:16;;;;;;;19.77;10.18;;;;;;;;;;4938822;28;20048;-76
2023/05/10 04:22:42;;;;;;;15.73;10.15;;;;;;;;;;4974128;28;20035;-79
2023/05/10 04:25:08;;;;;;;22.50;9.48;;;;;;;;;;4979383;28;20066;-80
2023/05/10 04:27:35;;;;;;;19.20;9.48;;;;;;;;;;4981425;28;20117;-79
2023/05/10 04:30:01;;;;;;;21.67;10.00;;;;;;;;;;4962611;28;20041;-77
2023/05/10 04:32:32;;;;;;;16.55;9.80;;;;;;;;;;4973529;28;20030;-78
2023/05/10 04:34:58;;;;;;;15.60;9.30;;;;;;;;;;4970952;28;20582;-78
2023/05/10 04:37:24;;;;;;;17.63;9.18;;;;;;;;;;4967478;28;20026;-78
2023/05/10 04:39:50;;;;;;;27.95;9.07;;;;;;;;;;4969987;28;20054;-78
2023/05/10 04:42:17;;;;;;;23.05;9.15;;;;;;;;;;4973857;28;20023;-78
2023/05/10 04:44:43;;;;;;;14.20;9.13;;;;;;;;;;4975852;28;20051;-78
2023/05/10 04:47:09;;;;;;;25.05;9.80;;;;;;;;;;4975264;28;20039;-79
2023/05/10 04:49:35;;;;;;;24.33;10.00;;;;;;;;;;4959689;28;20039;-78
2023/05/10 04:52:01;;;;;;;30.08;10.38;;;;;;;;;;4970147;28;20505;-78
2023/05/10 04:54:27;;;;;;;20.45;10.32;;;;;;;;;;4970652;28;20054;-77
2023/05/10 04:56:53;;;;;;;23.33;9.90;;;;;;;;;;4971695;28;20031;-78
2023/05/10 04:59:19;;;;;;;18.15;9.63;;;;;;;;;;4967018;28;20058;-79
2023/05/10 05:01:46;;;;;;;20.02;10.00;;;;;;;;;;4961688;28;20465;-77
2023/05/10 05:04:11;;;;;;;17.52;9.23;;;;;;;;;;4962680;28;20516;-77
2023/05/10 05:06:37;;;;;;;25.85;9.45;;;;;;;;;;4964073;28;20034;-77
2023/05/10 05:09:03;;;;;;;24.05;10.30;;;;;;;;;;4961286;28;20580;-76
2023/05/10 05:11:29;;;;;;;22.27;9.55;;;;;;;;;;4965235;28;20035;-77
2023/05/10 05:13:55;;;;;;;21.23;9.52;;;;;;;;;;4971625;28;20039;-77
2023/05/10 05:16:22;;;;;;;25.23;9.30;;;;;;;;;;4953547;28;20027;-78
2023/05/10 05:18:48;;;;;;;25.98;9.45;;;;;;;;;;4971206;28;20032;-77
2023/05/10 05:21:15;;;;;;;24.80;9.27;;;;;;;;;;4972359;28;20112;-79
2023/05/10 05:23:41;;;;;;;15.50;10.07;;;;;;;;;;4983136;28;20035;-78
2023/05/10 05:26:07;;;;;;;19.67;9.15;;;;;;;;;;4970763;28;20525;-78
2023/05/10 05:28:36;;;;;;;17.27;9.10;;;;;;;;;;4986042;28;20077;-78
2023/05/10 05:31:04;;;;;;;85.23;46.67;;;;;;;;;;4989481;28;20041;-78
2023/05/10 05:33:30;;;;;;;50.08;24.95;;;;;;;;;;4990393;28;20505;-78
2023/05/10 05:35:56;;;;;;;15.63;8.80;;;;;;;;;;4990223;28;20062;-77
2023/05/10 05:38:23;;;;;;;16.95;7.78;;;;;;;;;;4990408;28;20042;-76
2023/05/10 05:40:49;;;;;;;20.65;8.82;;;;;;;;;;4990264;28;20046;-77
2023/05/10 05:43:15;;;;;;;21.90;7.60;;;;;;;;;;4988995;28;20050;-76
2023/05/10 05:45:42;;;;;;;15.05;7.30;;;;;;;;;;4972746;28;20038;-76
2023/05/10 05:48:08;;;;;;;28.55;14.27;;;;;;;;;;4969589;28;20113;-77
2023/05/10 05:50:34;;;;;;;16.83;8.45;;;;;;;;;;4972261;28;20085;-77
2023/05/10 05:53:01;;;;;;;11.82;8.27;;;;;;;;;;4969173;28;20544;-77
2023/05/10 05:55:27;;;;;;;11.85;7.32;;;;;;;;;;4953629;28;20039;-79
2023/05/10 05:57:54;;;;;;;10.88;6.43;;;;;;;;;;4969367;28;20035;-77
2023/05/10 06:00:21;;;;;;;12.30;6.50;;;;;;;;;;4974822;28;20042;-77
2023/05/10 06:02:47;;;;;;;8.80;6.20;;;;;;;;;;4976571;28;20031;-79
2023/05/10 06:05:14;;;;;;;13.68;5.80;;;;;;;;;;4974067;28;20054;-79
2023/05/10 06:07:42;;;;;;;14.55;5.80;;;;;;;;;;4974749;28;20027;-78
2023/05/10 06:10:08;;;;;;;8.98;5.43;;;;;;;;;;4976462;28;20094;-76
2023/05/10 06:12:34;;;;;;;10.30;4.95;;;;;;;;;;4973673;28;20031;-77
2023/05/10 06:15:00;;;;;;;9.43;5.45;;;;;;;;;;4988982;28;20039;-78
2023/05/10 06:17:28;;;;;;;13.10;6.45;;;;;;;;;;4989354;28;20018;-79
2023/05/10 06:19:54;;;;;;;17.75;10.18;;;;;;;;;;4978741;28;20045;-79
2023/05/10 06:22:22;;;;;;;12.20;5.28;;;;;;;;;;4984389;28;20041;-79
2023/05/10 06:24:49;;;;;;;10.55;5.13;;;;;;;;;;4976372;28;20045;-80
2023/05/10 06:27:17;;;;;;;16.90;12.23;;;;;;;;;;4992699;28;20031;-79
2023/05/10 06:29:44;;;;;;;4.47;3.00;;;;;;;;;;4974874;28;20035;-78
2023/05/10 06:32:10;;;;;;;7.30;2.90;;;;;;;;;;4973048;28;20174;-78
2023/05/10 06:34:36;;;;;;;2.95;2.60;;;;;;;;;;4975106;28;20098;-79
2023/05/10 06:37:03;;;;;;;4.05;2.28;;;;;;;;;;4973364;28;20041;-77
2023/05/10 06:39:29;;;;;;;2.33;2.17;;;;;;;;;;4972495;28;20026;-77
2023/05/10 06:41:55;;;;;;;4.88;2.22;;;;;;;;;;4968842;28;20394;-77
2023/05/10 06:44:21;;;;;;;4.93;2.50;;;;;;;;;;4977126;28;20046;-79
2023/05/10 06:46:47;;;;;;;7.13;2.20;;;;;;;;;;4986340;28;20037;-76
2023/05/10 06:49:51;;;;;;;5.38;2.45;;;;;;;;;;4989133;28;20106;-79
2023/05/10 06:52:18;;;;;;;2.42;2.28;;;;;;;;;;4958827;28;20218;-79
2023/05/10 06:54:46;;;;;;;3.33;2.50;;;;;;;;;;4954684;28;20039;-76
2023/05/10 06:57:12;;;;;;;2.30;2.20;;;;;;;;;;4973771;28;20386;-79
2023/05/10 06:59:38;;;;;;;3.08;2.42;;;;;;;;;;4973472;28;20138;-78
2023/05/10 07:02:05;;;;;;;5.43;2.58;;;;;;;;;;4976507;28;20038;-79
2023/05/10 07:04:31;;;;;;;5.90;2.25;;;;;;;;;;4977740;28;20161;-81
2023/05/10 07:06:59;;;;;;;3.67;2.28;;;;;;;;;;4979161;28;20049;-80
2023/05/10 07:09:28;;;;;;;6.18;2.50;;;;;;;;;;4978886;28;20039;-79
2023/05/10 07:11:54;;;;;;;4.65;2.78;;;;;;;;;;4986574;28;20558;-80
2023/05/10 07:14:28;;;;;;;3.13;2.75;;;;;;;;;;4981240;28;20027;-79
2023/05/10 07:16:55;;;;;;;6.93;2.17;;;;;;;;;;4994642;28;20030;-80
2023/05/10 07:19:21;;;;;;;3.10;2.05;;;;;;;;;;5006651;28;20066;-80
2023/05/10 07:21:47;;;;;;;4.20;2.33;;;;;;;;;;4995015;28;20034;-78
2023/05/10 07:24:13;;;;;;;4.45;2.40;;;;;;;;;;4997322;28;20054;-77
2023/05/10 07:26:39;;;;;;;3.80;2.10;;;;;;;;;;4995246;28;20030;-78
2023/05/10 07:29:06;;;;;;;2.00;1.90;;;;;;;;;;4980717;28;20384;-79
2023/05/10 07:31:32;;;;;;;6.45;3.10;;;;;;;;;;4969433;28;20027;-80
2023/05/10 07:33:58;;;;;;;2.55;2.35;;;;;;;;;;4981122;28;20045;-78
2023/05/10 07:36:24;;;;;;;2.90;2.13;;;;;;;;;;4974385;28;20501;-78
2023/05/10 07:38:50;;;;;;;2.05;1.90;;;;;;;;;;4973748;28;20043;-78
2023/05/10 07:41:16;;;;;;;5.20;1.83;;;;;;;;;;4973077;28;20034;-78
2023/05/10 07:43:42;;;;;;;2.17;2.08;;;;;;;;;;4987229;28;20130;-78
2023/05/10 07:46:09;;;;;;;4.05;2.33;;;;;;;;;;4971386;28;20042;-77
2023/05/10 07:48:38;;;;;;;2.95;2.30;;;;;;;;;;4975352;28;20413;-77
2023/05/10 07:51:06;;;;;;;3.40;2.13;;;;;;;;;;4971491;28;20046;-81
2023/05/10 07:53:32;;;;;;;6.03;2.22;;;;;;;;;;4981981;28;20035;-82
2023/05/10 07:55:58;;;;;;;2.92;2.72;;;;;;;;;;4981287;28;20042;-79
2023/05/10 07:58:24;;;;;;;2.88;2.60;;;;;;;;;;4997480;28;20069;-81
2023/05/10 08:00:50;;;;;;;4.50;3.20;;;;;;;;;;4976322;28;20489;-76
2023/05/10 08:03:19;;;;;;;2.83;2.60;;;;;;;;;;4969833;28;20074;-78
2023/05/10 08:05:48;;;;;;;3.72;2.20;;;;;;;;;;4993225;28;20031;-81
2023/05/10 08:08:14;;;;;;;4.30;2.90;;;;;;;;;;4977853;28;20410;-79
2023/05/10 08:10:39;;;;;;;5.53;2.60;;;;;;;;;;4974817;28;20434;-80
2023/05/10 08:13:08;;;;;;;5.40;2.50;;;;;;;;;;4986231;28;20066;-83
2023/05/10 08:15:46;;;;;;;4.22;2.00;;;;;;;;;;4987022;28;20077;-82
2023/05/10 08:18:15;;;;;;;2.83;1.95;;;;;;;;;;4985478;28;20098;-80
2023/05/10 08:20:41;;;;;;;4.97;2.00;;;;;;;;;;4985926;28;20043;-80
2023/05/10 08:23:07;;;;;;;2.15;1.95;;;;;;;;;;4989344;28;20033;-85
2023/05/10 08:25:33;;;;;;;3.10;1.83;;;;;;;;;;5005853;28;20051;-80
2023/05/10 08:28:01;;;;;;;2.10;1.90;;;;;;;;;;4970628;28;20501;-82
2023/05/10 08:30:27;;;;;;;2.60;2.40;;;;;;;;;;5005289;28;20501;-82
2023/05/10 08:32:53;;;;;;;2.65;1.98;;;;;;;;;;4988400;28;20047;-80
2023/05/10 08:35:22;;;;;;;4.68;1.80;;;;;;;;;;4987058;28;20034;-82
2023/05/10 08:37:51;;;;;;;7.10;1.80;;;;;;;;;;4985910;28;20090;-81
2023/05/10 08:40:21;;;;;;;6.80;2.20;;;;;;;;;;4973186;28;20070;-77
2023/05/10 08:43:03;;;;;;;3.67;2.00;;;;;;;;;;4971748;28;20039;-78
2023/05/10 08:45:30;;;;;;;5.45;2.25;;;;;;;;;;4954003;28;20537;-77
2023/05/10 08:47:56;;;;;;;4.57;2.08;;;;;;;;;;4971339;28;20080;-78
2023/05/10 08:50:22;;;;;;;4.32;2.10;;;;;;;;;;4953480;28;20072;-77
2023/05/10 08:52:48;;;;;;;5.15;2.10;;;;;;;;;;4971340;28;20142;-76
2023/05/10 08:55:15;;;;;;;1.95;1.85;;;;;;;;;;4972959;28;20520;-78
2023/05/10 08:57:46;;;;;;;1.92;1.83;;;;;;;;;;4970019;28;20041;-78
2023/05/10 09:00:15;;;;;;;6.30;2.10;;;;;;;;;;4986908;28;20058;-80
2023/05/10 09:02:42;;;;;;;4.38;1.95;;;;;;;;;;4975195;28;20089;-81
2023/05/10 09:05:08;;;;;;;4.70;2.33;;;;;;;;;;4960632;28;20054;-80
2023/05/10 09:07:37;;;;;;;3.30;2.22;;;;;;;;;;4973432;28;20023;-78
2023/05/10 09:10:04;;;;;;;5.47;2.17;;;;;;;;;;4971282;28;20049;-82
2023/05/10 09:12:30;;;;;;;3.28;2.10;;;;;;;;;;4974343;28;20037;-81
2023/05/10 09:14:56;;;;;;;2.97;2.03;;;;;;;;;;4979940;28;20046;-82
2023/05/10 09:17:22;;;;;;;3.30;2.20;;;;;;;;;;4943008;28;20039;-80
2023/05/10 09:19:48;;;;;;;7.00;2.10;;;;;;;;;;5000078;28;20038;-79
2023/05/10 09:22:14;;;;;;;2.47;2.28;;;;;;;;;;4979153;28;20097;-86
2023/05/10 09:24:44;;;;;;;4.40;2.10;;;;;;;;;;4995202;28;20050;-81
2023/05/10 09:27:11;;;;;;;6.82;2.20;;;;;;;;;;4996513;28;20038;-84
2023/05/10 09:29:41;;;;;;;5.60;2.20;;;;;;;;;;5003723;28;20101;-85
2023/05/10 09:32:06;;;;;;;2.25;2.15;;;;;;;;;;5008944;28;20038;-84
2023/05/10 09:34:34;;;;;;;3.53;2.38;;;;;;;;;;5160927;22;20160;-77
2023/05/10 09:37:01;;;;;;;4.55;2.50;;;;;;;;;;5033792;28;20018;-81
2023/05/10 09:39:31;;;;;;;3.30;2.75;;;;;;;;;;5043011;28;20018;-82
2023/05/10 09:41:57;;;;;;;3.22;2.00;;;;;;;;;;5049228;28;20093;-83
2023/05/10 09:44:25;;;;;;;2.35;2.15;;;;;;;;;;5023229;28;20045;-82
2023/05/10 09:46:53;;;;;;;4.05;2.40;;;;;;;;;;5033551;28;20507;-83
2023/05/10 09:49:23;;;;;;;6.65;2.55;;;;;;;;;;5102547;22;20044;31
2023/05/10 09:52:02;;;;;;;3.30;2.20;;;;;;;;;;4987172;28;20467;-79
2023/05/10 09:54:28;;;;;;;2.97;2.13;;;;;;;;;;4959142;28;20057;-81
2023/05/10 09:56:54;;;;;;;3.33;2.58;;;;;;;;;;4997601;28;20019;-82
2023/05/10 09:59:20;;;;;;;2.25;2.10;;;;;;;;;;4980071;28;20074;-80
2023/05/10 10:01:54;;;;;;;7.30;2.47;;;;;;;;;;4986467;28;20500;-82
2023/05/10 10:04:21;;;;;;;5.85;2.53;;;;;;;;;;4974800;28;20051;-79
2023/05/10 10:06:49;;;;;;;2.63;2.42;;;;;;;;;;4965356;28;20046;-80
2023/05/10 10:09:17;;;;;;;6.07;2.30;;;;;;;;;;4971530;28;20093;-81
2023/05/10 10:11:43;;;;;;;6.88;2.47;;;;;;;;;;4974760;28;20069;-82
2023/05/10 10:14:10;;;;;;;9.77;2.60;;;;;;;;;;4961287;28;20027;-81
2023/05/10 10:16:36;;;;;;;4.78;2.90;;;;;;;;;;4987235;28;20044;-83
2023/05/10 10:19:03;;;;;;;7.50;2.72;;;;;;;;;;4982337;28;20113;-80
2023/05/10 10:21:29;;;;;;;2.60;2.40;;;;;;;;;;4969855;28;20103;-81
2023/05/10 10:23:55;;;;;;;2.83;2.40;;;;;;;;;;5000575;28;20038;-82
2023/05/10 10:26:22;;;;;;;3.47;2.72;;;;;;;;;;4987383;28;20031;-82
2023/05/10 10:29:00;;;;;;;3.33;2.22;;;;;;;;;;4976182;28;20521;-78
2023/05/10 10:31:28;;;;;;;2.95;2.33;;;;;;;;;;4973769;28;20058;-79
2023/05/10 10:33:57;;;;;;;2.80;2.38;;;;;;;;;;4971639;28;20550;-77
2023/05/10 10:36:23;;;;;;;3.33;2.60;;;;;;;;;;4971111;28;20127;-78
2023/05/10 10:38:48;;;;;;;2.90;2.60;;;;;;;;;;4972065;28;20070;-78
2023/05/10 10:41:26;;;;;;;6.28;2.63;;;;;;;;;;4964329;28;20057;-78
2023/05/10 10:44:12;;;;;;;3.78;3.03;;;;;;;;;;4978578;28;20043;-80
2023/05/10 10:46:58;;;;;;;3.03;2.65;;;;;;;;;;4956068;29;20450;-80
2023/05/10 10:49:24;;;;;;;3.00;2.60;;;;;;;;;;4972795;28;20023;-81
2023/05/10 10:52:09;;;;;;;3.05;2.60;;;;;;;;;;4989446;28;20035;-80
2023/05/10 10:54:36;;;;;;;3.53;2.80;;;;;;;;;;4973413;28;20034;-81
2023/05/10 10:57:13;;;;;;;2.70;2.50;;;;;;;;;;4972229;28;20035;-81
2023/05/10 10:59:46;;;;;;;5.90;2.53;;;;;;;;;;4975404;28;20042;-80
2023/05/10 11:02:31;;;;;;;6.25;2.50;;;;;;;;;;4951715;29;20054;-81
2023/05/10 11:04:58;;;;;;;4.97;2.50;;;;;;;;;;4964173;28;20046;-82
2023/05/10 11:07:24;;;;;;;2.40;2.30;;;;;;;;;;4985553;28;20034;-81
2023/05/10 11:09:53;;;;;;;5.38;2.55;;;;;;;;;;4984732;28;20105;-81
2023/05/10 11:12:19;;;;;;;4.28;2.35;;;;;;;;;;4982658;28;20401;-81
2023/05/10 11:14:56;;;;;;;6.63;2.17;;;;;;;;;;4978705;28;20038;-80
2023/05/10 11:17:23;;;;;;;2.75;2.40;;;;;;;;;;4980042;28;20062;-79
2023/05/10 11:20:16;;;;;;;2.50;2.40;;;;;;;;;;4981995;28;20061;-81
2023/05/10 11:22:54;;;;;;;2.53;2.33;;;;;;;;;;4970277;28;20058;-81
2023/05/10 11:25:26;;;;;;;3.75;2.00;;;;;;;;;;5001209;28;20047;-80
2023/05/10 11:27:52;;;;;;;4.53;2.17;;;;;;;;;;4985408;28;20034;-82
2023/05/10 11:30:18;;;;;;;3.00;2.30;;;;;;;;;;4986936;28;20528;-81
2023/05/10 11:32:44;;;;;;;2.75;2.47;;;;;;;;;;4986513;28;20034;-81
2023/05/10 11:35:13;;;;;;;4.53;2.22;;;;;;;;;;4986506;28;20047;-82
2023/05/10 11:37:43;;;;;;;2.47;2.17;;;;;;;;;;5001086;28;20026;-80
2023/05/10 11:40:10;;;;;;;2.58;2.33;;;;;;;;;;4983589;28;20039;-80
2023/05/10 11:42:37;;;;;;;3.92;2.35;;;;;;;;;;4980914;28;20042;-81
2023/05/10 11:45:05;;;;;;;2.70;2.50;;;;;;;;;;4968212;28;20047;-81
2023/05/10 11:47:36;;;;;;;3.03;2.83;;;;;;;;;;4947027;29;20066;-80
2023/05/10 11:50:02;;;;;;;2.83;2.63;;;;;;;;;;4962377;28;20070;-81
2023/05/10 11:52:35;;;;;;;4.15;2.78;;;;;;;;;;4963566;28;20063;-82
2023/05/10 11:55:02;;;;;;;4.90;2.60;;;;;;;;;;4977380;28;20046;-82
2023/05/10 11:57:31;;;;;;;2.50;2.30;;;;;;;;;;4965537;28;20027;-81
2023/05/10 11:59:57;;;;;;;4.00;2.55;;;;;;;;;;4981881;28;20042;-81
2023/05/10 12:02:33;;;;;;;4.32;2.50;;;;;;;;;;4967175;28;20060;-81
2023/05/10 12:04:59;;;;;;;7.55;2.40;;;;;;;;;;4982115;28;20070;-81
2023/05/10 12:07:25;;;;;;;3.05;2.47;;;;;;;;;;4967436;29;20043;-81
2023/05/10 12:10:11;;;;;;;5.65;2.47;;;;;;;;;;4966880;29;20543;-80
2023/05/10 12:12:41;;;;;;;5.28;2.30;;;;;;;;;;4950282;29;20469;-80
2023/05/10 12:15:12;;;;;;;2.80;2.38;;;;;;;;;;4980139;28;20027;-81
2023/05/10 12:17:39;;;;;;;3.72;2.50;;;;;;;;;;4979098;28;20031;-83
2023/05/10 12:20:17;;;;;;;6.45;2.78;;;;;;;;;;4966151;28;20031;-81
2023/05/10 12:22:44;;;;;;;5.63;2.70;;;;;;;;;;4968388;29;20095;-82
2023/05/10 12:25:10;;;;;;;2.08;1.98;;;;;;;;;;4971431;28;20023;-80
2023/05/10 12:27:36;;;;;;;2.47;2.28;;;;;;;;;;4972178;28;20015;-82
2023/05/10 12:30:02;;;;;;;3.25;2.35;;;;;;;;;;4973364;28;20047;-80
2023/05/10 12:32:38;;;;;;;3.10;2.60;;;;;;;;;;4972309;28;20046;-83
2023/05/10 12:35:05;;;;;;;2.63;2.42;;;;;;;;;;4984442;28;20049;-81
2023/05/10 12:37:31;;;;;;;5.75;2.45;;;;;;;;;;4952530;29;20112;-80
2023/05/10 12:39:57;;;;;;;2.70;2.50;;;;;;;;;;4972545;29;20043;-81
2023/05/10 12:42:24;;;;;;;2.72;2.50;;;;;;;;;;4987225;28;20028;-80
2023/05/10 12:44:54;;;;;;;2.55;2.35;;;;;;;;;;4969660;29;20134;-81
2023/05/10 12:47:20;;;;;;;2.53;2.25;;;;;;;;;;4980921;28;20122;-81
2023/05/10 12:49:47;;;;;;;2.67;2.47;;;;;;;;;;4964513;28;20526;-83
2023/05/10 12:52:12;;;;;;;3.67;2.55;;;;;;;;;;4977946;28;20490;-81
2023/05/10 12:54:39;;;;;;;4.82;2.67;;;;;;;;;;4963542;28;20039;-81
2023/05/10 12:57:05;;;;;;;3.00;2.53;;;;;;;;;;4962897;29;20035;-81
2023/05/10 12:59:31;;;;;;;7.10;2.72;;;;;;;;;;4962879;29;20042;-81
2023/05/10 13:01:57;;;;;;;5.53;2.10;;;;;;;;;;4969031;28;20058;-82
2023/05/10 13:04:23;;;;;;;2.90;2.58;;;;;;;;;;4970179;28;20047;-81
2023/05/10 13:06:50;;;;;;;3.08;2.33;;;;;;;;;;4986066;28;20055;-82
2023/05/10 13:09:16;;;;;;;3.35;2.40;;;;;;;;;;4989388;28;20327;-82
2023/05/10 13:11:42;;;;;;;2.88;2.67;;;;;;;;;;4979954;28;20034;-83
2023/05/10 13:14:08;;;;;;;4.10;2.63;;;;;;;;;;4986941;28;20394;-82
2023/05/10 13:16:34;;;;;;;5.03;2.20;;;;;;;;;;4980501;28;20118;-83
2023/05/10 13:19:03;;;;;;;2.60;2.40;;;;;;;;;;4981038;28;20046;-81
2023/05/10 13:21:30;;;;;;;4.82;2.65;;;;;;;;;;4983519;28;20122;-82
2023/05/10 13:23:56;;;;;;;4.80;2.40;;;;;;;;;;4987030;28;20444;-82
2023/05/10 13:26:22;;;;;;;3.13;2.83;;;;;;;;;;4981170;28;20035;-81
2023/05/10 13:28:49;;;;;;;2.33;2.20;;;;;;;;;;4980159;28;20055;-81
2023/05/10 13:31:15;;;;;;;4.45;2.65;;;;;;;;;;4979414;28;20039;-81
2023/05/10 13:33:41;;;;;;;5.38;2.75;;;;;;;;;;4997354;28;20098;-80
2023/05/10 13:36:07;;;;;;;4.05;2.15;;;;;;;;;;4984077;28;20032;-80
2023/05/10 13:38:33;;;;;;;3.53;2.20;;;;;;;;;;4986206;28;20070;-81
2023/05/10 13:40:59;;;;;;;2.58;2.30;;;;;;;;;;4986180;28;20086;-81
2023/05/10 13:43:25;;;;;;;2.40;2.30;;;;;;;;;;4987295;28;20035;-82
2023/05/10 13:45:52;;;;;;;4.00;2.60;;;;;;;;;;4987172;28;20046;-82
2023/05/10 13:48:18;;;;;;;14.20;2.75;;;;;;;;;;4985414;28;20039;-81
2023/05/10 13:50:44;;;;;;;5.93;2.47;;;;;;;;;;5004579;28;20544;-80
2023/05/10 13:53:11;;;;;;;3.63;2.90;;;;;;;;;;5003752;28;20042;-80
2023/05/10 13:55:37;;;;;;;6.07;2.75;;;;;;;;;;4989973;28;20197;-81
2023/05/10 13:58:03;;;;;;;3.30;3.00;;;;;;;;;;4987843;28;20414;-82
2023/05/10 14:00:29;;;;;;;6.65;2.70;;;;;;;;;;4985700;28;20053;-82
2023/05/10 14:02:55;;;;;;;2.83;2.63;;;;;;;;;;4984141;28;20126;-81
2023/05/10 14:05:22;;;;;;;2.55;2.30;;;;;;;;;;4986570;28;20054;-80
2023/05/10 14:07:49;;;;;;;3.22;2.92;;;;;;;;;;4986543;28;20409;-80
2023/05/10 14:10:15;;;;;;;3.00;2.60;;;;;;;;;;4988163;28;20038;-81
2023/05/10 14:12:42;;;;;;;2.65;2.50;;;;;;;;;;4985954;28;20049;-81
2023/05/10 14:15:10;;;;;;;10.93;6.38;;;;;;;;;;4987037;28;20038;-81
2023/05/10 14:17:36;;;;;;;4.70;2.60;;;;;;;;;;4986165;28;20035;-81
2023/05/10 14:20:03;;;;;;;7.03;2.70;;;;;;;;;;4983328;28;20035;-81
2023/05/10 14:22:30;;;;;;;6.18;2.40;;;;;;;;;;4983275;28;20122;-81
2023/05/10 14:24:57;;;;;;;2.72;2.53;;;;;;;;;;4982780;28;20066;-82
2023/05/10 14:27:23;;;;;;;3.30;2.72;;;;;;;;;;4987776;28;20457;-80
2023/05/10 14:29:49;;;;;;;4.57;2.55;;;;;;;;;;4986487;28;20041;-81
2023/05/10 14:32:15;;;;;;;5.38;2.60;;;;;;;;;;4985159;28;20130;-81
2023/05/10 14:34:41;;;;;;;2.53;2.33;;;;;;;;;;4988421;28;20042;-81
2023/05/10 14:37:07;;;;;;;3.63;3.33;;;;;;;;;;4986112;28;20035;-80
2023/05/10 14:39:33;;;;;;;8.48;4.40;;;;;;;;;;4986537;28;20294;-81